Time;durP1;ratioP1;P1;durP2;ratioP2;P2;SDS_P1;SDS_P2;PMS_P1;PMS_P2;Temp;Humidity;BMP_temperature;BMP_pressure;BME280_temperature;BME280_humidity;BME280_pressure;Samples;Min_cycle;Max_cycle;Signal;HPM_P1;HPM_P2
2022/01/30 00:00:31;;;;;;;;;;;;;;;1.74;100.00;100389.03;5557668;32;34963;-83
2022/01/30 00:03:34;;;;;;;;;;;;;;;1.68;100.00;100399.78;5557368;32;34674;-83
2022/01/30 00:06:40;;;;;;;;;;;;;;;1.65;100.00;100394.69;5558302;32;37432;-82
2022/01/30 00:09:43;;;;;;;;;;;;;;;1.61;100.00;100398.41;5558641;32;34808;-82
2022/01/30 00:12:53;;;;;;;;;;;;;;;1.43;100.00;100389.78;5567471;31;34913;-82
2022/01/30 00:15:56;;;;;;;;;;;;;;;1.38;100.00;100377.84;5558097;32;34438;-82
2022/01/30 00:19:12;;;;;;;;;;;;;;;1.26;100.00;100373.25;5558230;32;34467;-82
2022/01/30 00:22:27;;;;;;;;;;;;;;;1.23;100.00;100358.63;5559560;32;34395;-82
2022/01/30 00:25:43;;;;;;;;;;;;;;;1.22;100.00;100346.50;5558285;32;35429;-82
2022/01/30 00:28:46;;;;;;;;;;;;;;;1.18;100.00;100329.34;5557340;32;34111;-82
2022/01/30 00:31:52;;;;;;;;;;;;;;;1.17;100.00;100319.00;5557686;32;34827;-82
2022/01/30 00:35:18;;;;;;;;;;;;;;;1.26;100.00;100317.69;5558093;32;34671;-82
2022/01/30 00:38:23;;;;;;;;;;;;;;;1.27;100.00;100311.56;5567326;32;35483;-82
2022/01/30 00:41:31;;;;;;;;;;;;;;;1.25;100.00;100302.97;5563323;32;35756;-82
2022/01/30 00:44:34;;;;;;;;;;;;;;;1.31;100.00;100284.37;5562537;32;34406;-82
2022/01/30 00:47:37;;;;;;;;;;;;;;;1.30;100.00;100282.69;5557658;32;34337;-82
2022/01/30 00:50:42;;;;;;;;;;;;;;;1.32;100.00;100288.69;5557598;32;34991;-82
2022/01/30 00:53:45;;;;;;;;;;;;;;;1.38;100.00;100275.34;5557631;32;35235;-83
2022/01/30 00:56:48;;;;;;;;;;;;;;;1.48;100.00;100273.91;5558656;32;34545;-82
2022/01/30 00:59:51;;;;;;;;;;;;;;;1.50;100.00;100266.84;5564371;32;34695;-82
2022/01/30 01:02:53;;;;;;;;;;;;;;;1.50;100.00;100277.28;5562907;32;34575;-82
2022/01/30 01:05:58;;;;;;;;;;;;;;;1.50;100.00;100256.41;5557817;32;34931;-82
2022/01/30 01:09:03;;;;;;;;;;;;;;;1.53;100.00;100253.63;5558001;32;34278;-82
2022/01/30 01:12:29;;;;;;;;;;;;;;;1.59;100.00;100241.19;5557707;32;34595;-82
2022/01/30 01:25:38;;;;;;;;;;;;;;;2.09;97.68;100227.03;5557979;32;35806;-82
2022/01/30 01:28:40;;;;;;;;;;;;;;;2.21;96.24;100214.19;5557625;32;34583;-83
2022/01/30 01:31:43;;;;;;;;;;;;;;;2.16;96.68;100217.94;5557763;32;35739;-82
2022/01/30 01:34:45;;;;;;;;;;;;;;;2.18;94.57;100215.22;5557622;32;33471;-83
2022/01/30 01:37:53;;;;;;;;;;;;;;;2.20;94.83;100212.50;5557945;32;35304;-82
2022/01/30 01:41:00;;;;;;;;;;;;;;;2.24;95.31;100212.28;5557122;32;34524;-82
2022/01/30 01:44:13;;;;;;;;;;;;;;;2.31;94.76;100199.69;5561166;32;35098;-82
2022/01/30 01:47:18;;;;;;;;;;;;;;;2.19;95.34;100190.81;5561644;32;35833;-82
2022/01/30 01:50:38;;;;;;;;;;;;;;;2.25;96.01;100189.59;5558215;32;34630;-82
2022/01/30 01:53:43;;;;;;;;;;;;;;;2.15;95.88;100186.69;5556922;32;34639;-82
2022/01/30 01:56:46;;;;;;;;;;;;;;;1.88;98.89;100173.47;5557430;32;34735;-83
2022/01/30 01:59:49;;;;;;;;;;;;;;;1.67;99.88;100160.75;5556541;32;34443;-82
2022/01/30 02:02:55;;;;;;;;;;;;;;;1.58;100.00;100164.69;5557257;32;34872;-82
2022/01/30 02:06:02;;;;;;;;;;;;;;;1.49;100.00;100153.03;5558391;32;35334;-82
2022/01/30 02:09:11;;;;;;;;;;;;;;;1.40;100.00;100150.97;5557079;32;35013;-82
2022/01/30 02:12:19;;;;;;;;;;;;;;;1.39;100.00;100149.28;5556600;32;34590;-82
2022/01/30 02:28:35;;;;;;;;;;;;;;;1.89;97.26;100117.75;5556825;32;34511;-83
2022/01/30 02:31:41;;;;;;;;;;;;;;;1.98;97.06;100118.06;5556482;32;34465;-83
2022/01/30 02:34:44;;;;;;;;;;;;;;;2.18;95.53;100110.00;5556536;32;34945;-83
2022/01/30 02:37:51;;;;;;;;;;;;;;;2.21;95.73;100088.91;5542558;32;35276;-83
2022/01/30 02:40:56;;;;;;;;;;;;;;;2.23;95.82;100076.59;5557341;32;35739;-83
2022/01/30 02:50:54;;;;;;;;;;;;;;;2.66;94.99;100079.19;5555945;32;35190;-83
2022/01/30 02:54:05;;;;;;;;;;;;;;;2.73;94.98;100085.72;5556644;32;34410;-83
2022/01/30 02:57:08;;;;;;;;;;;;;;;2.98;94.41;100073.72;5556049;32;36042;-83
2022/01/30 03:00:13;;;;;;;;;;;;;;;3.13;93.57;100078.88;5556991;32;35058;-84
2022/01/30 03:03:19;;;;;;;;;;;;;;;3.14;93.44;100086.66;5556097;32;34697;-83
2022/01/30 03:06:25;;;;;;;;;;;;;;;3.24;93.12;100085.13;5555766;32;34647;-84
2022/01/30 03:09:28;;;;;;;;;;;;;;;3.24;93.10;100081.63;5557549;32;35093;-83
2022/01/30 03:12:32;;;;;;;;;;;;;;;3.34;92.59;100074.03;5559375;32;35419;-83
2022/01/30 03:15:35;;;;;;;;;;;;;;;3.30;93.46;100075.19;5560948;32;35011;-84
2022/01/30 03:18:44;;;;;;;;;;;;;;;3.52;93.08;100062.38;5564973;31;34243;-83
2022/01/30 03:21:46;;;;;;;;;;;;;;;3.33;94.08;100051.44;5557112;32;34898;-83
2022/01/30 03:24:56;;;;;;;;;;;;;;;3.29;94.45;100042.97;5557374;32;34656;-83
2022/01/30 03:28:04;;;;;;;;;;;;;;;3.14;95.42;100042.22;5556021;32;34683;-83
2022/01/30 03:31:11;;;;;;;;;;;;;;;3.02;96.93;100035.97;5555104;32;35168;-83
2022/01/30 03:34:14;;;;;;;;;;;;;;;2.95;98.02;100047.78;5555240;32;35385;-83
2022/01/30 03:37:18;;;;;;;;;;;;;;;2.89;98.73;100028.09;5555196;32;34698;-83
2022/01/30 03:40:22;;;;;;;;;;;;;;;2.89;99.76;100022.88;5557374;32;34869;-83
2022/01/30 03:43:26;;;;;;;;;;;;;;;2.84;100.00;100009.25;5557900;32;34995;-83
2022/01/30 03:46:36;;;;;;;;;;;;;;;2.89;100.00;99986.28;5557965;32;34613;-83
2022/01/30 03:49:56;;;;;;;;;;;;;;;3.20;100.00;99999.13;5557659;32;34259;-83
2022/01/30 03:52:59;;;;;;;;;;;;;;;3.35;99.20;99997.28;5558537;32;35205;-83
2022/01/30 03:56:02;;;;;;;;;;;;;;;3.43;99.02;99994.97;5558125;32;34698;-83
2022/01/30 03:59:06;;;;;;;;;;;;;;;3.55;100.00;99975.00;5557728;32;34985;-83
2022/01/30 04:02:13;;;;;;;;;;;;;;;3.59;100.00;99994.78;5557778;32;34447;-83
2022/01/30 04:05:18;;;;;;;;;;;;;;;3.60;99.78;99970.31;5557387;32;34375;-83
2022/01/30 04:08:24;;;;;;;;;;;;;;;3.64;100.00;99966.53;5557168;32;34760;-83
2022/01/30 04:11:29;;;;;;;;;;;;;;;3.53;100.00;99963.81;5557315;32;34584;-83
2022/01/30 04:14:32;;;;;;;;;;;;;;;3.36;100.00;99950.09;5557578;32;34727;-83
2022/01/30 04:17:38;;;;;;;;;;;;;;;3.25;100.00;99960.44;5557837;32;34854;-83
2022/01/30 04:20:41;;;;;;;;;;;;;;;3.09;100.00;99940.56;5562241;32;34427;-83
2022/01/30 04:23:44;;;;;;;;;;;;;;;3.20;100.00;99932.00;5562481;32;35826;-83
2022/01/30 04:26:47;;;;;;;;;;;;;;;3.88;100.00;99952.72;5559541;32;35340;-83
2022/01/30 04:29:50;;;;;;;;;;;;;;;4.55;97.57;99948.88;5559074;32;35279;-84
2022/01/30 04:32:53;;;;;;;;;;;;;;;4.99;94.67;99948.34;5558862;32;34733;-83
2022/01/30 04:36:02;;;;;;;;;;;;;;;5.01;94.66;99933.34;5560442;32;35785;-84
2022/01/30 04:58:47;;;;;;;;;;;;;;;6.16;97.39;99907.91;5564226;32;36807;-84
2022/01/30 05:02:02;;;;;;;;;;;;;;;5.82;98.84;99921.03;5565121;32;34651;-83
2022/01/30 05:08:09;;;;;;;;;;;;;;;5.68;100.00;99897.66;5560045;32;34294;-82
2022/01/30 05:11:14;;;;;;;;;;;;;;;5.62;99.96;99904.22;5560592;32;34837;-83
2022/01/30 05:14:23;;;;;;;;;;;;;;;5.74;98.17;99906.84;5559707;32;35368;-83
2022/01/30 05:17:28;;;;;;;;;;;;;;;5.72;98.09;99904.34;5559313;32;35108;-82
2022/01/30 05:20:35;;;;;;;;;;;;;;;5.55;98.74;99909.13;5560309;32;34602;-83
2022/01/30 05:23:38;;;;;;;;;;;;;;;5.54;98.29;99896.94;5560578;32;34764;-83
2022/01/30 05:26:42;;;;;;;;;;;;;;;5.44;98.65;99914.34;5562481;32;34188;-83
2022/01/30 05:29:48;;;;;;;;;;;;;;;5.53;97.59;99926.75;5561452;32;34694;-83
2022/01/30 05:32:51;;;;;;;;;;;;;;;5.63;96.97;99931.28;5562548;32;35632;-83
2022/01/30 05:35:55;;;;;;;;;;;;;;;5.76;95.97;99929.41;5560468;32;34443;-83
2022/01/30 05:38:58;;;;;;;;;;;;;;;5.82;95.76;99913.16;5561457;32;34671;-83
2022/01/30 05:42:04;;;;;;;;;;;;;;;5.84;95.60;99927.00;5560783;32;35292;-83
2022/01/30 05:48:17;;;;;;;;;;;;;;;5.57;98.49;99949.16;5560280;32;34513;-82
2022/01/30 05:51:21;;;;;;;;;;;;;;;5.64;98.30;99951.34;5559421;32;34882;-82
2022/01/30 05:54:27;;;;;;;;;;;;;;;5.58;99.21;99950.03;5560091;32;36972;-83
2022/01/30 05:57:32;;;;;;;;;;;;;;;5.40;100.00;99941.75;5560099;32;34867;-83
2022/01/30 06:00:35;;;;;;;;;;;;;;;5.32;100.00;99949.38;5560024;32;34338;-83
2022/01/30 06:03:39;;;;;;;;;;;;;;;5.36;100.00;99949.03;5559251;32;35798;-83
2022/01/30 06:06:49;;;;;;;;;;;;;;;5.34;100.00;99958.00;5558770;32;35797;-83
2022/01/30 06:09:52;;;;;;;;;;;;;;;5.12;100.00;99954.34;5558689;32;34811;-87
2022/01/30 06:12:54;;;;;;;;;;;;;;;4.84;100.00;99966.03;5561724;32;35699;-83
2022/01/30 06:15:57;;;;;;;;;;;;;;;4.74;100.00;99973.72;5559642;32;35122;-84
2022/01/30 06:19:01;;;;;;;;;;;;;;;4.61;100.00;99956.28;5559932;32;35823;-83
2022/01/30 06:22:11;;;;;;;;;;;;;;;4.60;100.00;99959.03;5559742;32;34841;-83
2022/01/30 06:25:18;;;;;;;;;;;;;;;4.73;100.00;99972.06;5560531;32;34591;-83
2022/01/30 06:28:29;;;;;;;;;;;;;;;4.86;100.00;99978.09;5564768;32;34436;-83
2022/01/30 06:31:35;;;;;;;;;;;;;;;4.85;100.00;100001.75;5561394;32;33382;-84
2022/01/30 06:34:48;;;;;;;;;;;;;;;4.71;100.00;99976.56;5559643;32;35969;-83
2022/01/30 06:37:52;;;;;;;;;;;;;;;4.35;100.00;99970.41;5559877;32;34365;-83
2022/01/30 06:40:58;;;;;;;;;;;;;;;4.27;100.00;99974.41;5560215;32;34697;-83
2022/01/30 06:44:05;;;;;;;;;;;;;;;4.02;100.00;99981.38;5558436;32;35051;-83
2022/01/30 06:47:18;;;;;;;;;;;;;;;4.01;100.00;99987.53;5558679;32;33912;-83
2022/01/30 06:50:25;;;;;;;;;;;;;;;3.99;100.00;99997.31;5560281;32;34899;-83
2022/01/30 06:53:33;;;;;;;;;;;;;;;4.10;100.00;99996.53;5558910;32;35030;-83
2022/01/30 06:56:39;;;;;;;;;;;;;;;4.21;100.00;99989.72;5561267;32;33744;-83
2022/01/30 06:59:48;;;;;;;;;;;;;;;4.18;100.00;99990.78;5558286;32;34181;-83
2022/01/30 07:02:57;;;;;;;;;;;;;;;4.24;100.00;100003.44;5560026;32;34942;-82
2022/01/30 07:06:00;;;;;;;;;;;;;;;4.27;100.00;99990.12;5558651;32;35119;-83
2022/01/30 07:09:04;;;;;;;;;;;;;;;4.47;100.00;99985.25;5557695;32;35115;-82
2022/01/30 07:12:08;;;;;;;;;;;;;;;4.46;100.00;99967.84;5559133;32;35984;-83
2022/01/30 07:15:11;;;;;;;;;;;;;;;4.64;100.00;99981.41;5546400;32;34837;-82
2022/01/30 07:18:14;;;;;;;;;;;;;;;4.61;100.00;99966.75;5562992;32;34718;-84
2022/01/30 07:21:16;;;;;;;;;;;;;;;4.69;100.00;99952.25;5560076;32;34833;-83
2022/01/30 07:24:20;;;;;;;;;;;;;;;4.66;100.00;99953.31;5560358;32;35217;-83
2022/01/30 07:27:23;;;;;;;;;;;;;;;4.85;100.00;99968.53;5559897;32;34404;-81
2022/01/30 07:30:28;;;;;;;;;;;;;;;4.93;100.00;99950.47;5559265;32;35335;-82
2022/01/30 07:33:35;;;;;;;;;;;;;;;4.94;100.00;99967.84;5562917;32;35361;-81
2022/01/30 07:36:46;;;;;;;;;;;;;;;5.04;98.57;99975.03;5562335;32;34647;-82
2022/01/30 07:39:48;;;;;;;;;;;;;;;5.10;97.36;99969.34;5561214;32;34739;-83
2022/01/30 07:42:52;;;;;;;;;;;;;;;5.07;96.90;99977.44;5564549;32;34939;-85
2022/01/30 07:45:55;;;;;;;;;;;;;;;5.07;96.52;99977.44;5561532;32;37105;-83
2022/01/30 07:48:59;;;;;;;;;;;;;;;5.10;95.99;99970.19;5561814;32;34808;-83
2022/01/30 07:52:01;;;;;;;;;;;;;;;5.14;93.99;99994.37;5563083;32;35878;-83
2022/01/30 07:55:04;;;;;;;;;;;;;;;5.17;92.45;99983.69;5561870;32;34578;-83
2022/01/30 07:58:07;;;;;;;;;;;;;;;5.35;88.69;99996.34;5559968;32;35340;-83
2022/01/30 08:01:10;;;;;;;;;;;;;;;5.39;87.17;99992.56;5561342;32;34993;-84
2022/01/30 08:04:13;;;;;;;;;;;;;;;5.48;86.08;100010.22;5563386;32;35774;-84
2022/01/30 08:07:15;;;;;;;;;;;;;;;5.52;85.06;100030.06;5562044;32;35683;-83
2022/01/30 08:10:18;;;;;;;;;;;;;;;5.64;80.66;100001.22;5562452;32;34669;-84
2022/01/30 08:13:20;;;;;;;;;;;;;;;5.93;74.88;100021.75;5562668;32;35381;-83
2022/01/30 08:16:27;;;;;;;;;;;;;;;6.05;75.21;100054.97;5562079;32;35839;-82
2022/01/30 08:19:29;;;;;;;;;;;;;;;6.40;73.18;100092.63;5560843;32;34853;-84
2022/01/30 08:22:47;;;;;;;;;;;;;;;6.41;71.60;100053.09;5561811;32;34799;-83
2022/01/30 08:25:49;;;;;;;;;;;;;;;6.44;71.55;100073.03;5563359;32;35986;-83
2022/01/30 08:28:55;;;;;;;;;;;;;;;6.24;73.30;100087.72;5561218;32;34886;-84
2022/01/30 08:31:58;;;;;;;;;;;;;;;6.16;72.83;100060.25;5561553;32;35513;-85
2022/01/30 08:35:04;;;;;;;;;;;;;;;6.17;73.19;100051.41;5562237;32;35221;-83
2022/01/30 08:38:07;;;;;;;;;;;;;;;6.14;74.60;100056.91;5561684;32;35402;-85
2022/01/30 08:41:13;;;;;;;;;;;;;;;6.18;74.89;100047.84;5561618;32;34708;-81
2022/01/30 08:44:15;;;;;;;;;;;;;;;6.32;74.22;100032.78;5561748;32;34595;-85
2022/01/30 08:47:18;;;;;;;;;;;;;;;6.32;74.80;100048.56;5562159;32;34784;-85
2022/01/30 08:50:21;;;;;;;;;;;;;;;6.34;74.58;100068.50;5561521;32;35711;-85
2022/01/30 08:53:24;;;;;;;;;;;;;;;6.44;72.79;100079.12;5561159;32;35820;-87
2022/01/30 08:56:28;;;;;;;;;;;;;;;6.48;72.63;100056.91;5562893;32;34342;-85
2022/01/30 08:59:31;;;;;;;;;;;;;;;6.54;72.50;100068.72;5561004;32;35701;-87
2022/01/30 09:02:35;;;;;;;;;;;;;;;6.63;72.80;100068.00;5560662;32;34715;-84
2022/01/30 09:05:38;;;;;;;;;;;;;;;6.59;69.26;100092.00;5560650;32;35033;-85
2022/01/30 09:08:40;;;;;;;;;;;;;;;6.64;69.91;100074.09;5562024;32;35422;-86
2022/01/30 09:11:49;;;;;;;;;;;;;;;6.62;68.06;100107.53;5561259;32;34768;-83
2022/01/30 09:14:52;;;;;;;;;;;;;;;6.67;68.62;100088.78;5561532;32;34531;-84
2022/01/30 09:17:57;;;;;;;;;;;;;;;6.73;69.02;100083.88;5561861;32;34128;-86
2022/01/30 09:21:00;;;;;;;;;;;;;;;6.75;67.21;100076.72;5563609;32;35748;-85
2022/01/30 09:24:05;;;;;;;;;;;;;;;6.78;67.66;100097.50;5562594;32;34692;-85
2022/01/30 09:27:08;;;;;;;;;;;;;;;6.82;65.53;100029.72;5562517;32;34716;-85
2022/01/30 09:30:12;;;;;;;;;;;;;;;6.89;64.48;100051.94;5562573;32;34506;-84
2022/01/30 09:33:14;;;;;;;;;;;;;;;6.86;62.40;100009.28;5562014;32;34547;-85
2022/01/30 09:36:17;;;;;;;;;;;;;;;6.80;62.87;100019.34;5560223;32;35762;-85
2022/01/30 09:39:20;;;;;;;;;;;;;;;6.85;62.19;100020.75;5558562;32;34948;-85
2022/01/30 09:42:23;;;;;;;;;;;;;;;6.88;60.13;100034.47;5561302;32;35770;-84
2022/01/30 09:45:28;;;;;;;;;;;;;;;6.87;60.69;100031.97;5561022;32;34339;-86
2022/01/30 09:48:34;;;;;;;;;;;;;;;6.90;59.64;100058.03;5561194;32;34642;-84
2022/01/30 09:51:43;;;;;;;;;;;;;;;6.92;60.06;100021.94;5561038;32;35534;-86
2022/01/30 09:54:48;;;;;;;;;;;;;;;7.04;61.10;100018.28;5561421;32;35450;-86
2022/01/30 09:57:50;;;;;;;;;;;;;;;6.88;60.10;100023.13;5561594;32;35372;-87
2022/01/30 10:00:53;;;;;;;;;;;;;;;6.91;59.59;100038.69;5560223;32;35499;-84
2022/01/30 10:03:56;;;;;;;;;;;;;;;6.95;60.51;100024.28;5560433;32;34338;-86
2022/01/30 10:07:03;;;;;;;;;;;;;;;6.98;59.96;100033.75;5560879;32;34976;-86
2022/01/30 10:10:09;;;;;;;;;;;;;;;7.11;61.07;100056.31;5561293;32;35273;-85
2022/01/30 10:13:12;;;;;;;;;;;;;;;7.13;61.63;100068.50;5559880;32;34808;-85
2022/01/30 10:16:15;;;;;;;;;;;;;;;6.78;62.45;100079.09;5560823;32;34856;-87
2022/01/30 10:19:21;;;;;;;;;;;;;;;6.70;62.46;100093.81;5561053;32;34668;-86
2022/01/30 10:22:27;;;;;;;;;;;;;;;6.45;63.05;100070.28;5562716;32;35046;-83
2022/01/30 10:25:29;;;;;;;;;;;;;;;6.22;62.79;100090.47;5561782;32;34907;-86
2022/01/30 10:28:32;;;;;;;;;;;;;;;5.94;62.16;100096.94;5563376;32;35031;-84
2022/01/30 10:31:55;;;;;;;;;;;;;;;5.93;61.26;100118.91;5563081;32;35277;-86
2022/01/30 10:35:03;;;;;;;;;;;;;;;5.79;62.85;100088.44;5561060;32;35030;-86
2022/01/30 10:38:36;;;;;;;;;;;;;;;5.85;61.49;100073.06;5560640;32;34434;-83
2022/01/30 10:41:42;;;;;;;;;;;;;;;5.87;60.81;100141.22;5561085;32;34901;-86
2022/01/30 10:44:47;;;;;;;;;;;;;;;5.94;61.85;100120.59;5559471;32;34481;-85
2022/01/30 10:47:50;;;;;;;;;;;;;;;5.94;61.49;100081.19;5546075;32;35599;-85
2022/01/30 10:50:52;;;;;;;;;;;;;;;5.94;61.56;100063.66;5560459;32;35945;-86
2022/01/30 10:53:56;;;;;;;;;;;;;;;5.98;62.46;100061.63;5560906;32;35856;-85
2022/01/30 10:57:03;;;;;;;;;;;;;;;5.97;63.19;100059.97;5561334;32;34869;-85
2022/01/30 11:00:08;;;;;;;;;;;;;;;6.10;63.21;100073.88;5561310;32;35640;-86
2022/01/30 11:03:31;;;;;;;;;;;;;;;6.26;63.21;100070.03;5559708;32;34527;-84
2022/01/30 11:06:39;;;;;;;;;;;;;;;6.64;61.12;100058.31;5558822;32;35812;-86
2022/01/30 11:09:53;;;;;;;;;;;;;;;6.63;60.01;100046.12;5558598;32;35837;-86
2022/01/30 11:12:57;;;;;;;;;;;;;;;6.60;60.43;100072.66;5557625;32;34764;-86
2022/01/30 11:16:56;;;;;;;;;;;;;;;6.71;59.38;100035.84;5559973;32;37664;-86
2022/01/30 11:19:24;;;;;;;;;;;;;;;6.71;58.97;100012.16;5559193;32;35155;-85
2022/01/30 11:22:28;;;;;;;;;;;;;;;6.59;58.73;100055.22;5558619;32;34799;-85
2022/01/30 11:25:35;;;;;;;;;;;;;;;6.25;62.81;100021.09;5560568;32;34990;-84
2022/01/30 11:28:45;;;;;;;;;;;;;;;6.30;62.04;100058.34;5559781;32;34706;-84
2022/01/30 11:31:48;;;;;;;;;;;;;;;6.38;59.98;100076.97;5545890;32;35247;-88
2022/01/30 11:34:51;;;;;;;;;;;;;;;6.17;61.58;100008.56;5559285;32;35203;-86
2022/01/30 11:37:58;;;;;;;;;;;;;;;6.36;61.40;100021.06;5558330;32;35834;-86
2022/01/30 11:41:08;;;;;;;;;;;;;;;6.53;59.40;100082.00;5558179;32;35465;-84
2022/01/30 11:44:18;;;;;;;;;;;;;;;6.38;61.73;100052.50;5563016;32;35056;-86
2022/01/30 11:47:22;;;;;;;;;;;;;;;6.25;62.69;100060.50;5558725;32;35680;-87
2022/01/30 11:50:28;;;;;;;;;;;;;;;6.36;61.18;100031.56;5559513;32;35436;-86
2022/01/30 11:53:31;;;;;;;;;;;;;;;6.38;61.37;100032.28;5557825;32;37139;-86
2022/01/30 11:56:34;;;;;;;;;;;;;;;6.56;60.67;100050.22;5558100;32;34750;-87
2022/01/30 11:59:38;;;;;;;;;;;;;;;6.69;60.83;100043.03;5559313;32;35029;-86
2022/01/30 12:02:44;;;;;;;;;;;;;;;6.63;60.80;100040.87;5561742;32;34658;-86
2022/01/30 12:05:47;;;;;;;;;;;;;;;6.77;59.81;100048.50;5560751;32;35201;-85
2022/01/30 12:08:50;;;;;;;;;;;;;;;6.85;58.39;100076.81;5559821;32;34579;-84
2022/01/30 12:11:57;;;;;;;;;;;;;;;6.75;58.26;100046.97;5560452;32;34877;-86
2022/01/30 12:15:00;;;;;;;;;;;;;;;6.63;56.23;100020.69;5561983;32;35325;-86
2022/01/30 12:18:04;;;;;;;;;;;;;;;6.89;55.61;100040.59;5561582;32;34771;-84
2022/01/30 12:21:08;;;;;;;;;;;;;;;6.94;55.59;100046.28;5558725;32;34840;-86
2022/01/30 12:24:28;;;;;;;;;;;;;;;6.99;55.56;100056.44;5558224;32;34004;-86
2022/01/30 12:27:48;;;;;;;;;;;;;;;7.04;56.23;100060.38;5560848;32;35930;-87
2022/01/30 12:30:52;;;;;;;;;;;;;;;6.97;56.51;100079.44;5560734;32;34739;-87
2022/01/30 12:34:00;;;;;;;;;;;;;;;6.91;57.43;100078.13;5561958;32;35073;-88
2022/01/30 12:37:03;;;;;;;;;;;;;;;6.82;56.86;100057.78;5560173;32;35125;-86
2022/01/30 12:40:09;;;;;;;;;;;;;;;6.92;58.14;100059.59;5560867;32;33760;-86
2022/01/30 12:43:11;;;;;;;;;;;;;;;6.78;57.42;100076.47;5561258;32;35839;-86
2022/01/30 12:46:15;;;;;;;;;;;;;;;6.47;58.48;100055.22;5560930;32;35286;-86
2022/01/30 12:49:19;;;;;;;;;;;;;;;6.36;58.45;100060.47;5562514;32;34853;-86
2022/01/30 12:52:34;;;;;;;;;;;;;;;6.51;56.63;100076.00;5557206;32;35813;-86
2022/01/30 12:55:39;;;;;;;;;;;;;;;6.38;56.79;100044.63;5543858;32;34484;-85
2022/01/30 12:58:45;;;;;;;;;;;;;;;6.21;60.01;100040.69;5564803;32;34603;-86
2022/01/30 13:01:50;;;;;;;;;;;;;;;5.87;59.99;100033.56;5560167;32;35982;-87
2022/01/30 13:04:59;;;;;;;;;;;;;;;5.94;58.99;100047.91;5540428;32;34651;-88
2022/01/30 13:08:02;;;;;;;;;;;;;;;6.06;58.90;100063.72;5542551;32;35712;-87
2022/01/30 13:11:35;;;;;;;;;;;;;;;5.88;62.35;100033.47;5540564;32;35150;-88
2022/01/30 13:14:39;;;;;;;;;;;;;;;5.79;63.27;100063.06;5529512;32;34659;-87
2022/01/30 13:17:42;;;;;;;;;;;;;;;5.63;64.79;100062.53;5542107;32;35833;-87
2022/01/30 13:20:46;;;;;;;;;;;;;;;5.59;64.79;100122.28;5541988;32;34200;-86
2022/01/30 13:23:51;;;;;;;;;;;;;;;5.40;68.44;100084.25;5542105;32;35446;-86
2022/01/30 13:26:59;;;;;;;;;;;;;;;5.24;70.60;100100.28;5543182;32;35794;-86
2022/01/30 13:30:02;;;;;;;;;;;;;;;5.13;72.64;100131.69;5558081;32;34670;-84
2022/01/30 13:33:15;;;;;;;;;;;;;;;5.06;71.47;100127.84;5560186;32;35103;-85
2022/01/30 13:36:21;;;;;;;;;;;;;;;5.00;72.07;100118.63;5559534;32;34346;-85
2022/01/30 13:39:34;;;;;;;;;;;;;;;5.03;68.77;100128.06;5559925;32;35033;-85
2022/01/30 13:42:54;;;;;;;;;;;;;;;5.03;71.24;100151.66;5560376;32;35808;-85
2022/01/30 13:49:03;;;;;;;;;;;;;;;4.82;71.62;100110.28;5561589;32;35266;-86
2022/01/30 13:52:13;;;;;;;;;;;;;;;4.91;70.92;100122.75;5561202;32;35002;-86
2022/01/30 13:55:19;;;;;;;;;;;;;;;4.93;70.00;100113.00;5560504;32;34510;-87
2022/01/30 13:58:46;;;;;;;;;;;;;;;5.09;68.31;100122.41;5560203;32;34999;-85
2022/01/30 14:01:59;;;;;;;;;;;;;;;4.92;71.37;100119.19;5559981;32;34808;-85
2022/01/30 14:05:22;;;;;;;;;;;;;;;5.00;68.72;100091.59;5560370;32;35704;-86
2022/01/30 14:08:25;;;;;;;;;;;;;;;4.91;69.61;100114.87;5560458;32;34305;-85
2022/01/30 14:11:32;;;;;;;;;;;;;;;5.10;68.66;100124.06;5561109;32;34796;-86
2022/01/30 14:14:38;;;;;;;;;;;;;;;5.05;69.68;100110.44;5562372;32;34692;-86
2022/01/30 14:17:43;;;;;;;;;;;;;;;5.01;69.26;100106.38;5560165;32;34902;-87
2022/01/30 14:20:47;;;;;;;;;;;;;;;5.04;67.87;100103.53;5560287;32;34711;-85
2022/01/30 14:23:53;;;;;;;;;;;;;;;5.17;66.59;100101.69;5559665;32;34561;-86
2022/01/30 14:27:05;;;;;;;;;;;;;;;5.36;65.23;100129.19;5562939;32;35745;-87
2022/01/30 14:30:11;;;;;;;;;;;;;;;5.29;66.21;100114.87;5560894;32;34844;-86
2022/01/30 14:33:14;;;;;;;;;;;;;;;5.25;65.85;100111.63;5558887;32;35187;-86
2022/01/30 14:36:23;;;;;;;;;;;;;;;5.40;64.21;100109.66;5560716;32;34696;-86
2022/01/30 14:39:27;;;;;;;;;;;;;;;5.50;62.94;100110.66;5560300;32;35067;-87
2022/01/30 14:42:31;;;;;;;;;;;;;;;5.51;63.53;100107.09;5559487;32;35264;-87
2022/01/30 14:45:34;;;;;;;;;;;;;;;5.46;63.61;100122.31;5560402;32;34814;-85
2022/01/30 14:48:38;;;;;;;;;;;;;;;5.51;62.11;100096.59;5560339;32;35480;-85
2022/01/30 14:51:41;;;;;;;;;;;;;;;5.49;63.86;100143.09;5559560;32;34593;-85
2022/01/30 14:54:44;;;;;;;;;;;;;;;5.52;61.98;100129.75;5559742;32;34928;-86
2022/01/30 14:57:48;;;;;;;;;;;;;;;5.54;61.64;100112.13;5560915;32;35691;-86
2022/01/30 15:00:55;;;;;;;;;;;;;;;5.49;61.63;100129.97;5559905;32;35522;-85
2022/01/30 15:03:58;;;;;;;;;;;;;;;5.44;61.73;100095.38;5560316;32;34490;-86
2022/01/30 15:07:02;;;;;;;;;;;;;;;5.46;60.77;100103.97;5558961;32;34700;-86
2022/01/30 15:10:05;;;;;;;;;;;;;;;5.51;60.34;100112.34;5559694;32;35150;-86
2022/01/30 15:13:13;;;;;;;;;;;;;;;5.57;59.97;100092.69;5558856;32;35288;-85
2022/01/30 15:16:23;;;;;;;;;;;;;;;5.54;60.31;100075.38;5558832;32;34877;-87
2022/01/30 15:19:27;;;;;;;;;;;;;;;5.52;60.02;100093.03;5558489;32;35815;-87
2022/01/30 15:22:31;;;;;;;;;;;;;;;5.52;58.86;100098.28;5559087;32;35377;-85
2022/01/30 15:25:34;;;;;;;;;;;;;;;5.49;58.85;100106.38;5558983;32;34594;-87
2022/01/30 15:28:37;;;;;;;;;;;;;;;5.41;58.85;100095.59;5557217;32;34948;-85
2022/01/30 15:31:40;;;;;;;;;;;;;;;5.35;58.63;100096.03;5555948;32;35515;-87
2022/01/30 15:34:44;;;;;;;;;;;;;;;5.31;58.89;100084.13;5558393;32;35075;-85
2022/01/30 15:37:49;;;;;;;;;;;;;;;5.45;57.26;100104.94;5560841;32;35086;-87
2022/01/30 15:40:54;;;;;;;;;;;;;;;5.44;57.62;100090.12;5561180;32;35175;-87
2022/01/30 15:44:17;;;;;;;;;;;;;;;5.41;57.86;100095.59;5560426;32;34829;-85
2022/01/30 15:50:44;;;;;;;;;;;;;;;5.42;57.96;100134.00;5561430;32;34902;-87
2022/01/30 15:53:50;;;;;;;;;;;;;;;5.47;57.32;100115.31;5559833;32;34644;-89
2022/01/30 15:56:56;;;;;;;;;;;;;;;5.39;57.54;100100.12;5561830;32;35224;-88
2022/01/30 15:59:59;;;;;;;;;;;;;;;5.40;56.75;100136.72;5561921;32;34390;-88
2022/01/30 16:03:10;;;;;;;;;;;;;;;5.35;57.02;100106.53;5558710;32;34733;-87
2022/01/30 16:06:14;;;;;;;;;;;;;;;5.38;56.41;100101.94;5559620;32;34737;-88
2022/01/30 16:09:21;;;;;;;;;;;;;;;5.38;56.33;100117.66;5557413;32;35284;-85
2022/01/30 16:15:58;;;;;;;;;;;;;;;5.35;56.23;100112.63;5504380;32;34566;-86
2022/01/30 16:19:02;;;;;;;;;;;;;;;5.36;56.01;100113.47;5558007;32;34597;-88
2022/01/30 16:22:16;;;;;;;;;;;;;;;5.30;56.93;100119.16;5557945;32;34662;-88
2022/01/30 16:25:31;;;;;;;;;;;;;;;5.28;56.53;100136.78;5556416;32;35833;-88
2022/01/30 16:28:34;;;;;;;;;;;;;;;5.18;57.29;100140.09;5557636;32;35295;-88
2022/01/30 16:31:37;;;;;;;;;;;;;;;5.11;57.26;100136.25;5557183;32;34733;-88
2022/01/30 16:34:43;;;;;;;;;;;;;;;5.15;56.88;100137.69;5558315;32;34814;-87
2022/01/30 16:37:49;;;;;;;;;;;;;;;5.10;56.87;100131.94;5559798;32;35794;-86
2022/01/30 16:40:52;;;;;;;;;;;;;;;5.19;56.44;100204.72;5557164;32;34368;-87
2022/01/30 16:43:57;;;;;;;;;;;;;;;5.24;56.21;100137.00;5559293;32;34669;-87
2022/01/30 16:47:04;;;;;;;;;;;;;;;5.30;55.79;100150.62;5559479;32;34651;-88
2022/01/30 16:50:08;;;;;;;;;;;;;;;5.20;56.55;100167.03;5558595;32;36083;-87
2022/01/30 16:53:15;;;;;;;;;;;;;;;5.23;56.25;100177.31;5558260;32;34622;-88
2022/01/30 16:56:18;;;;;;;;;;;;;;;5.26;56.16;100155.28;5557934;32;34915;-88
2022/01/30 16:59:21;;;;;;;;;;;;;;;5.19;56.62;100175.84;5557648;32;34719;-87
2022/01/30 17:02:24;;;;;;;;;;;;;;;5.18;57.02;100142.72;5559370;32;36475;-85
2022/01/30 17:05:27;;;;;;;;;;;;;;;5.21;56.26;100201.97;5556139;32;36897;-89
2022/01/30 17:08:31;;;;;;;;;;;;;;;5.16;56.73;100183.94;5558068;32;34366;-85
2022/01/30 17:11:39;;;;;;;;;;;;;;;5.18;56.39;100171.56;5560306;32;34684;-87
2022/01/30 17:14:41;;;;;;;;;;;;;;;5.21;56.16;100192.34;5558628;32;34175;-87